Time;durP1;ratioP1;P1;durP2;ratioP2;P2;SDS_P1;SDS_P2;PMS_P1;PMS_P2;Temp;Humidity;BMP_temperature;BMP_pressure;BME280_temperature;BME280_humidity;BME280_pressure;Samples;Min_cycle;Max_cycle;Signal;HPM_P1;HPM_P2
2021/03/04 00:00:48;;;;;;;36.88;16.80;;;;;;;1.62;62.14;97936.88;1740562;82;21124;-78
2021/03/04 00:03:17;;;;;;;32.33;16.02;;;;;;;1.61;62.26;97932.57;1744023;82;21121;-78
2021/03/04 00:05:45;;;;;;;30.97;15.65;;;;;;;1.60;62.39;97924.37;1740006;82;21239;-78
2021/03/04 00:08:12;;;;;;;33.78;18.27;;;;;;;1.58;62.32;97923.55;1744689;82;21467;-79
2021/03/04 00:10:41;;;;;;;30.88;18.05;;;;;;;1.56;62.31;97920.55;1745859;82;22249;-78
2021/03/04 00:13:08;;;;;;;34.05;16.32;;;;;;;1.55;62.38;97914.11;1746224;82;21285;-81
2021/03/04 00:15:36;;;;;;;31.15;17.10;;;;;;;1.52;62.43;97916.36;1736471;82;21594;-78
2021/03/04 00:18:05;;;;;;;28.42;15.85;;;;;;;1.51;62.58;97915.09;1723066;83;21294;-78
2021/03/04 00:20:34;;;;;;;29.85;14.18;;;;;;;1.49;62.41;97911.69;1728103;82;21157;-77
2021/03/04 00:23:02;;;;;;;22.27;12.33;;;;;;;1.45;62.73;97905.73;1744118;82;21160;-80
2021/03/04 00:25:33;;;;;;;33.28;15.63;;;;;;;1.40;62.77;97901.97;1738216;82;21129;-79
2021/03/04 00:28:05;;;;;;;33.45;15.13;;;;;;;1.38;62.62;97896.43;1723598;83;21277;-77
2021/03/04 00:30:33;;;;;;;30.05;12.68;;;;;;;1.32;62.72;97896.16;1724424;83;21669;-76
2021/03/04 00:33:00;;;;;;;25.82;13.78;;;;;;;1.29;63.11;97894.11;1737009;83;21256;-78
2021/03/04 00:35:28;;;;;;;30.85;15.13;;;;;;;1.27;63.05;97892.00;1743257;82;21270;-79
2021/03/04 00:37:56;;;;;;;31.00;13.78;;;;;;;1.22;63.19;97890.84;1733960;83;21103;-79
2021/03/04 00:40:23;;;;;;;28.05;14.40;;;;;;;1.18;63.17;97884.05;1706781;83;21151;-77
2021/03/04 00:42:53;;;;;;;28.30;14.65;;;;;;;1.15;63.29;97881.54;1722966;83;21595;-77
2021/03/04 00:45:24;;;;;;;26.68;14.85;;;;;;;1.12;63.12;97874.70;1730859;83;21148;-77
2021/03/04 00:47:53;;;;;;;27.00;14.20;;;;;;;1.13;63.56;97878.99;1726147;83;21184;-77
2021/03/04 00:50:21;;;;;;;27.73;15.03;;;;;;;1.13;63.26;97874.23;1703080;83;21138;-77
2021/03/04 00:52:50;;;;;;;29.00;15.98;;;;;;;1.14;63.66;97870.31;1702330;83;21170;-78
2021/03/04 00:55:22;;;;;;;32.03;16.02;;;;;;;1.16;63.71;97876.75;1705010;83;21131;-80
2021/03/04 00:57:52;;;;;;;31.50;16.32;;;;;;;1.19;63.68;97874.07;1699907;83;21152;-78
2021/03/04 01:00:21;;;;;;;36.33;19.73;;;;;;;1.24;63.80;97872.17;1706444;83;21275;-79
2021/03/04 01:02:49;;;;;;;31.95;17.02;;;;;;;1.28;63.75;97869.03;1702476;84;21152;-78
2021/03/04 01:05:17;;;;;;;29.37;14.05;;;;;;;1.30;64.78;97866.78;1702242;84;21178;-79
2021/03/04 01:07:45;;;;;;;30.45;16.00;;;;;;;1.30;63.96;97865.94;1719811;83;21154;-81
2021/03/04 01:10:21;;;;;;;30.02;16.42;;;;;;;1.29;63.71;97861.21;1716321;83;21135;-79
2021/03/04 01:12:48;;;;;;;29.72;15.23;;;;;;;1.28;63.86;97856.05;1731271;83;21277;-77
2021/03/04 01:15:19;;;;;;;27.87;14.38;;;;;;;1.23;64.19;97853.16;1716682;83;21188;-77
2021/03/04 01:17:46;;;;;;;30.23;16.17;;;;;;;1.19;63.78;97850.23;1715538;83;21104;-77
2021/03/04 01:20:16;;;;;;;29.75;17.62;;;;;;;1.16;64.03;97843.82;1729633;83;21292;-78
2021/03/04 01:22:45;;;;;;;29.07;14.70;;;;;;;1.16;63.95;97839.09;1724660;83;21557;-81
2021/03/04 01:25:14;;;;;;;30.55;17.02;;;;;;;1.15;64.28;97845.17;1730623;83;21247;-79
2021/03/04 01:27:44;;;;;;;29.20;15.98;;;;;;;1.12;64.01;97837.04;1719489;83;21186;-79
2021/03/04 01:30:14;;;;;;;36.53;16.65;;;;;;;1.08;64.26;97835.41;1727450;83;21188;-78
2021/03/04 01:32:42;;;;;;;34.60;17.42;;;;;;;1.03;64.43;97829.53;1701895;84;21170;-78
2021/03/04 01:35:12;;;;;;;34.83;19.02;;;;;;;1.04;64.51;97831.23;1703574;83;21184;-79
2021/03/04 01:37:40;;;;;;;36.03;19.15;;;;;;;1.05;64.52;97832.94;1710702;83;21128;-78
2021/03/04 01:40:12;;;;;;;33.30;17.25;;;;;;;1.06;64.56;97832.05;1731473;83;21175;-79
2021/03/04 01:42:39;;;;;;;30.80;18.37;;;;;;;1.02;64.59;97826.53;1727753;83;21150;-80
2021/03/04 01:45:09;;;;;;;40.75;19.57;;;;;;;1.02;64.59;97829.13;1706720;83;21150;-79
2021/03/04 01:47:40;;;;;;;32.40;17.85;;;;;;;0.98;65.06;97819.28;1705429;83;21268;-79
2021/03/04 01:50:12;;;;;;;31.30;16.13;;;;;;;0.96;64.68;97820.23;1704832;84;21288;-77
2021/03/04 01:52:40;;;;;;;39.03;20.65;;;;;;;0.96;65.74;97814.58;1711567;83;21278;-78
2021/03/04 01:55:09;;;;;;;35.98;18.52;;;;;;;0.95;65.02;97806.84;1702813;83;21163;-78
2021/03/04 01:57:38;;;;;;;34.43;17.60;;;;;;;0.96;64.85;97813.73;1722043;83;21186;-79
2021/03/04 02:00:08;;;;;;;34.15;18.87;;;;;;;0.96;64.85;97809.38;1688409;83;21313;-79
2021/03/04 02:02:36;;;;;;;37.70;18.60;;;;;;;0.95;64.67;97805.08;1675371;84;21294;-79
2021/03/04 02:05:11;;;;;;;33.90;15.90;;;;;;;0.95;64.77;97801.66;1705005;83;21273;-77
2021/03/04 02:07:59;;;;;;;30.57;14.98;;;;;;;0.89;64.74;97807.41;1729591;83;21303;-80
2021/03/04 02:10:49;;;;;;;29.95;15.48;;;;;;;0.88;64.93;97800.98;1728841;83;21101;-76
2021/03/04 02:13:43;;;;;;;27.27;13.40;;;;;;;0.84;65.09;97794.16;1715679;83;21288;-78
2021/03/04 02:16:18;;;;;;;30.27;13.93;;;;;;;0.83;65.09;97791.19;1674460;84;21179;-79
2021/03/04 02:18:51;;;;;;;28.92;15.98;;;;;;;0.84;65.21;97783.35;1720670;83;21704;-79
2021/03/04 02:21:30;;;;;;;28.65;12.95;;;;;;;0.86;65.30;97782.86;1714225;83;21189;-81
2021/03/04 02:24:21;;;;;;;23.25;11.80;;;;;;;0.88;65.39;97777.16;1703353;84;21191;-79
2021/03/04 02:27:15;;;;;;;25.02;13.50;;;;;;;0.86;65.28;97775.08;1715014;83;21156;-78
2021/03/04 02:30:07;;;;;;;22.20;12.10;;;;;;;0.81;65.27;97763.97;1728594;83;21351;-79
2021/03/04 02:32:38;;;;;;;26.10;12.35;;;;;;;0.78;65.44;97764.91;1734772;82;21131;-77
2021/03/04 02:35:14;;;;;;;28.57;14.60;;;;;;;0.75;65.21;97758.51;1728341;83;21124;-78
2021/03/04 02:37:46;;;;;;;23.07;12.73;;;;;;;0.75;65.51;97762.86;1724911;82;21181;-77
2021/03/04 02:40:16;;;;;;;23.42;11.75;;;;;;;0.71;66.07;97746.54;1719201;83;21239;-78
2021/03/04 02:42:44;;;;;;;29.05;14.87;;;;;;;0.68;65.55;97746.62;1722030;83;21266;-78
2021/03/04 02:45:14;;;;;;;25.15;12.90;;;;;;;0.70;65.58;97743.97;1733729;83;21142;-79
2021/03/04 02:47:43;;;;;;;24.82;13.38;;;;;;;0.69;65.62;97734.52;1708839;83;21338;-80
2021/03/04 02:50:13;;;;;;;32.13;15.67;;;;;;;0.69;65.83;97737.11;1704681;84;21280;-80
2021/03/04 02:52:43;;;;;;;29.50;16.13;;;;;;;0.66;65.92;97730.70;1712423;83;21278;-79
2021/03/04 02:55:13;;;;;;;37.10;16.53;;;;;;;0.64;66.18;97729.89;1732702;83;21140;-79
2021/03/04 02:57:45;;;;;;;34.80;17.57;;;;;;;0.62;66.07;97724.76;1729805;83;21599;-77
2021/03/04 03:00:17;;;;;;;35.78;17.82;;;;;;;0.58;66.12;97718.81;1732638;83;21155;-78
2021/03/04 03:02:46;;;;;;;34.23;16.80;;;;;;;0.55;65.95;97719.36;1729684;83;21148;-79
2021/03/04 03:05:16;;;;;;;32.13;15.87;;;;;;;0.51;66.12;97712.09;1727962;83;21582;-78
2021/03/04 03:07:45;;;;;;;37.33;18.53;;;;;;;0.48;66.15;97721.28;1710593;83;21273;-78
2021/03/04 03:10:16;;;;;;;37.00;18.87;;;;;;;0.48;66.29;97714.80;1733323;83;21294;-77
2021/03/04 03:12:47;;;;;;;36.40;18.15;;;;;;;0.47;66.35;97715.69;1722918;83;21335;-79
2021/03/04 03:15:17;;;;;;;37.80;19.50;;;;;;;0.44;66.40;97710.58;1723942;83;21262;-79
2021/03/04 03:17:46;;;;;;;42.80;21.03;;;;;;;0.40;66.72;97705.94;1724667;83;21202;-78
2021/03/04 03:20:18;;;;;;;36.67;18.57;;;;;;;0.39;66.58;97707.28;1732388;83;21143;-79
2021/03/04 03:22:48;;;;;;;41.57;19.43;;;;;;;0.37;66.42;97706.47;1716204;83;21262;-77
2021/03/04 03:25:16;;;;;;;43.20;20.47;;;;;;;0.37;66.90;97696.94;1717077;83;21254;-76
2021/03/04 03:27:46;;;;;;;37.20;17.60;;;;;;;0.39;66.80;97696.45;1704382;83;21299;-77
2021/03/04 03:30:21;;;;;;;41.77;17.93;;;;;;;0.41;66.90;97697.72;1677059;84;21282;-78
2021/03/04 03:33:04;;;;;;;34.70;17.57;;;;;;;0.39;66.79;97693.85;1724157;83;21263;-78
2021/03/04 03:35:34;;;;;;;34.20;16.97;;;;;;;0.39;66.55;97690.42;1729556;83;21223;-79
2021/03/04 03:38:06;;;;;;;38.07;17.93;;;;;;;0.38;66.93;97693.45;1712483;83;21347;-78
2021/03/04 03:40:36;;;;;;;34.63;19.03;;;;;;;0.43;66.87;97691.58;1724698;83;21127;-77
2021/03/04 03:43:11;;;;;;;46.27;19.77;;;;;;;0.46;66.89;97685.45;1717146;83;21247;-77
2021/03/04 03:45:42;;;;;;;36.70;16.97;;;;;;;0.47;67.02;97674.18;1730905;83;21274;-77
2021/03/04 03:48:15;;;;;;;36.37;19.67;;;;;;;0.48;66.95;97669.40;1730986;83;21310;-79
2021/03/04 03:50:47;;;;;;;40.27;20.57;;;;;;;0.49;66.65;97667.20;1704125;83;21264;-78
2021/03/04 03:53:16;;;;;;;34.43;16.60;;;;;;;0.52;67.07;97664.50;1725512;83;21158;-79
2021/03/04 03:55:50;;;;;;;35.92;17.48;;;;;;;0.09;66.91;97586.72;1701033;84;21351;-78
2021/03/04 03:58:21;;;;;;;42.30;18.30;;;;;;;0.60;66.80;97664.27;1715206;83;21135;-77
2021/03/04 04:00:55;;;;;;;32.93;16.57;;;;;;;0.60;66.73;97664.27;1722811;83;21141;-78
2021/03/04 04:03:24;;;;;;;32.33;15.30;;;;;;;0.59;66.90;97667.33;1701236;83;21193;-78
2021/03/04 04:05:54;;;;;;;39.78;16.97;;;;;;;0.58;66.69;97670.81;1701094;83;21163;-78
2021/03/04 04:08:25;;;;;;;35.98;16.73;;;;;;;0.58;66.58;97674.70;1706511;83;21181;-79
2021/03/04 04:10:53;;;;;;;30.62;14.07;;;;;;;0.61;66.84;97669.86;1704520;83;21689;-78
2021/03/04 04:13:23;;;;;;;31.80;15.50;;;;;;;0.61;66.89;97665.52;1717672;83;21209;-79
2021/03/04 04:15:51;;;;;;;30.80;15.53;;;;;;;0.66;66.63;97664.53;1722188;83;21140;-80
2021/03/04 04:18:20;;;;;;;31.27;14.43;;;;;;;0.69;66.67;97661.86;1714127;83;21249;-78
2021/03/04 04:20:50;;;;;;;27.32;13.93;;;;;;;0.68;66.49;97653.20;1701765;83;21162;-78
2021/03/04 04:23:19;;;;;;;30.43;15.13;;;;;;;0.71;66.54;97657.01;1701858;83;21310;-78
2021/03/04 04:25:52;;;;;;;30.33;15.53;;;;;;;0.74;66.58;97650.86;1704340;83;21167;-78
2021/03/04 04:28:24;;;;;;;27.52;14.73;;;;;;;0.76;66.40;97654.27;1702022;83;21297;-80
2021/03/04 04:30:52;;;;;;;29.50;16.20;;;;;;;0.78;66.42;97648.59;1701568;84;21796;-78
2021/03/04 04:33:20;;;;;;;31.93;14.75;;;;;;;0.80;66.29;97642.04;1727029;83;21132;-80
2021/03/04 04:35:50;;;;;;;24.45;12.37;;;;;;;0.81;66.50;97635.48;1730337;83;21153;-79
2021/03/04 04:38:19;;;;;;;25.30;11.68;;;;;;;0.86;66.60;97642.70;1714344;83;21128;-79
2021/03/04 04:40:47;;;;;;;26.77;13.80;;;;;;;0.87;66.68;97639.20;1716711;83;21185;-79
2021/03/04 04:43:15;;;;;;;33.45;14.10;;;;;;;0.85;66.72;97634.94;1707751;83;21157;-78
2021/03/04 04:45:43;;;;;;;32.45;16.02;;;;;;;0.83;66.54;97623.78;1722256;83;21274;-78
2021/03/04 04:48:11;;;;;;;29.50;13.85;;;;;;;0.83;66.58;97624.61;1737207;82;21119;-78
2021/03/04 04:50:40;;;;;;;28.83;14.97;;;;;;;0.87;66.66;97618.44;1718392;83;22368;-77
2021/03/04 04:53:09;;;;;;;28.65;14.07;;;;;;;0.88;66.76;97614.91;1705960;83;21268;-79
2021/03/04 04:55:38;;;;;;;28.53;14.77;;;;;;;0.89;67.00;97612.72;1703253;84;21284;-79
2021/03/04 04:58:06;;;;;;;31.10;15.85;;;;;;;0.94;66.68;97611.27;1703384;83;21670;-78
2021/03/04 05:00:33;;;;;;;33.42;18.42;;;;;;;0.96;66.55;97601.69;1705362;83;21319;-78
2021/03/04 05:03:01;;;;;;;32.53;16.53;;;;;;;0.95;67.00;97602.59;1703320;84;21728;-77
2021/03/04 05:05:29;;;;;;;30.83;17.47;;;;;;;0.95;66.37;97594.80;1704349;83;21306;-78
2021/03/04 05:07:57;;;;;;;37.90;17.55;;;;;;;0.99;66.36;97595.11;1714112;83;21160;-79
2021/03/04 05:10:25;;;;;;;35.43;15.17;;;;;;;1.05;66.29;97598.79;1728670;83;21274;-79
2021/03/04 05:12:53;;;;;;;30.50;16.32;;;;;;;1.10;66.06;97594.73;1706078;83;21263;-77
2021/03/04 05:15:21;;;;;;;33.47;16.73;;;;;;;1.16;66.22;97594.98;1703998;83;21316;-78
2021/03/04 05:17:52;;;;;;;34.38;17.48;;;;;;;1.21;66.08;97583.97;1717845;83;21699;-79
2021/03/04 05:20:20;;;;;;;31.77;14.83;;;;;;;1.24;66.01;97587.33;1724859;83;21270;-79
2021/03/04 05:22:48;;;;;;;32.60;15.83;;;;;;;1.28;65.87;97583.31;1704386;83;21145;-79
2021/03/04 05:25:16;;;;;;;28.87;14.93;;;;;;;1.29;66.19;97581.11;1703840;83;21304;-77
2021/03/04 05:27:43;;;;;;;24.32;12.10;;;;;;;1.29;65.82;97582.41;1704030;83;21301;-77
2021/03/04 05:30:14;;;;;;;28.90;14.43;;;;;;;1.29;65.63;97588.91;1731282;83;21337;-78
2021/03/04 05:32:42;;;;;;;26.60;13.75;;;;;;;1.33;65.62;97586.15;1732210;83;21181;-80
2021/03/04 05:35:11;;;;;;;27.13;13.95;;;;;;;1.38;65.59;97580.36;1732703;83;21259;-78
2021/03/04 05:37:41;;;;;;;29.42;14.15;;;;;;;1.39;65.44;97584.63;1730923;83;21148;-80
2021/03/04 05:40:11;;;;;;;27.80;14.53;;;;;;;1.39;65.29;97578.59;1731549;83;21148;-79
2021/03/04 05:42:42;;;;;;;31.57;15.60;;;;;;;1.43;65.30;97572.83;1731607;83;21172;-78
2021/03/04 05:45:13;;;;;;;30.90;14.93;;;;;;;1.48;65.28;97567.87;1730575;83;21150;-78
2021/03/04 05:47:43;;;;;;;31.07;14.43;;;;;;;1.52;65.06;97566.87;1728506;83;21160;-79
2021/03/04 05:50:14;;;;;;;25.25;14.83;;;;;;;1.53;65.06;97569.84;1729254;82;21712;-78
2021/03/04 05:52:50;;;;;;;47.48;23.83;;;;;;;1.61;65.07;97575.23;1728471;83;21163;-80
2021/03/04 05:55:19;;;;;;;45.78;25.43;;;;;;;1.67;65.07;97572.39;1723449;83;21616;-79
2021/03/04 05:57:50;;;;;;;30.72;14.33;;;;;;;1.76;65.27;97564.26;1703360;83;21583;-76
2021/03/04 06:00:20;;;;;;;32.80;17.10;;;;;;;1.80;65.30;97571.05;1712308;83;21152;-78
2021/03/04 06:02:48;;;;;;;32.93;16.93;;;;;;;1.85;65.29;97571.72;1722368;83;21117;-77
2021/03/04 06:05:17;;;;;;;36.58;14.38;;;;;;;1.90;64.89;97565.04;1719817;83;21144;-78
2021/03/04 06:07:46;;;;;;;26.15;12.40;;;;;;;1.95;64.72;97563.56;1711976;83;21578;-79
2021/03/04 06:10:15;;;;;;;27.25;13.13;;;;;;;1.95;64.72;97559.66;1710915;83;21154;-78
2021/03/04 06:12:43;;;;;;;28.23;14.38;;;;;;;1.99;64.60;97562.56;1712462;84;21157;-81
2021/03/04 06:15:13;;;;;;;28.20;14.15;;;;;;;2.05;64.76;97562.31;1725217;83;21290;-78
2021/03/04 06:17:57;;;;;;;31.23;14.10;;;;;;;2.12;64.71;97555.96;1720845;83;21300;-79
2021/03/04 06:20:42;;;;;;;23.80;13.95;;;;;;;2.17;64.54;97563.15;1730144;83;21298;-80
2021/03/04 06:23:10;;;;;;;29.60;13.85;;;;;;;2.23;64.44;97558.60;1722072;83;21136;-78
2021/03/04 06:25:38;;;;;;;39.63;14.87;;;;;;;2.27;64.34;97562.32;1700983;83;21157;-79
2021/03/04 06:28:07;;;;;;;28.92;15.03;;;;;;;2.35;64.34;97558.12;1706884;83;21616;-78
2021/03/04 06:30:39;;;;;;;27.22;13.38;;;;;;;2.43;64.22;97562.56;1715750;83;21143;-79
2021/03/04 06:33:12;;;;;;;28.30;14.07;;;;;;;2.50;64.12;97567.08;1719156;83;21156;-78
2021/03/04 06:35:43;;;;;;;32.05;13.45;;;;;;;2.56;63.93;97566.82;1718438;83;21287;-79
2021/03/04 06:38:19;;;;;;;28.95;13.38;;;;;;;2.62;63.83;97565.27;1721588;83;21144;-78
2021/03/04 06:40:49;;;;;;;30.17;14.87;;;;;;;2.67;63.52;97562.47;1724545;83;21180;-80
2021/03/04 06:43:28;;;;;;;31.57;15.93;;;;;;;2.72;63.45;97567.48;1717635;83;21156;-78
2021/03/04 06:46:07;;;;;;;27.73;15.28;;;;;;;2.77;63.31;97570.77;1722496;83;21593;-78
2021/03/04 06:48:35;;;;;;;26.00;15.60;;;;;;;2.79;63.03;97567.62;1726311;83;21247;-80
2021/03/04 06:51:06;;;;;;;37.75;17.80;;;;;;;2.86;63.15;97565.61;1719909;83;21166;-78
2021/03/04 06:53:33;;;;;;;33.08;16.75;;;;;;;2.97;63.05;97563.41;1701753;83;21142;-79
2021/03/04 06:56:05;;;;;;;30.43;15.50;;;;;;;3.07;62.91;97563.86;1719444;83;21155;-78
2021/03/04 06:58:39;;;;;;;33.45;16.40;;;;;;;3.12;62.64;97559.31;1705798;83;21579;-78
2021/03/04 07:01:17;;;;;;;32.58;15.30;;;;;;;3.21;62.56;97556.31;1700426;84;21164;-79
2021/03/04 07:03:55;;;;;;;32.33;15.63;;;;;;;3.31;62.32;97558.05;1712969;83;21160;-78
2021/03/04 07:06:26;;;;;;;42.25;17.17;;;;;;;3.34;62.17;97557.93;1723590;83;21152;-79
2021/03/04 07:08:56;;;;;;;43.13;18.45;;;;;;;3.31;61.86;97556.75;1728637;83;21577;-79
2021/03/04 07:11:25;;;;;;;49.25;22.52;;;;;;;3.32;61.81;97553.23;1729067;83;21168;-77
2021/03/04 07:13:56;;;;;;;49.00;23.67;;;;;;;3.33;61.77;97551.49;1704355;83;21175;-78
2021/03/04 07:16:43;;;;;;;42.80;21.42;;;;;;;3.40;61.77;97547.23;1709193;83;21109;-78
2021/03/04 07:19:16;;;;;;;39.73;20.60;;;;;;;3.49;61.75;97549.03;1718804;83;21145;-79
2021/03/04 07:21:48;;;;;;;47.05;22.37;;;;;;;3.64;61.71;97541.84;1701547;83;21577;-79
2021/03/04 07:24:15;;;;;;;41.88;20.62;;;;;;;3.78;61.37;97544.27;1730046;82;21149;-79
2021/03/04 07:26:43;;;;;;;44.18;24.50;;;;;;;3.86;61.25;97539.11;1728159;83;21144;-79
2021/03/04 07:29:12;;;;;;;54.03;30.23;;;;;;;3.91;61.10;97536.28;1712128;83;21187;-78
2021/03/04 07:31:43;;;;;;;49.73;24.27;;;;;;;4.03;60.84;97528.34;1712557;83;21547;-78
2021/03/04 07:34:14;;;;;;;44.55;22.52;;;;;;;4.06;60.73;97531.64;1679922;84;21140;-79
2021/03/04 07:36:54;;;;;;;40.52;22.73;;;;;;;4.13;60.50;97531.37;1715032;83;21128;-79
2021/03/04 07:39:29;;;;;;;49.65;22.52;;;;;;;4.20;60.53;97524.47;1710693;82;21152;-77
2021/03/04 07:41:57;;;;;;;57.40;23.27;;;;;;;4.28;60.43;97532.39;1705138;83;21162;-78
2021/03/04 07:44:33;;;;;;;48.08;22.32;;;;;;;4.33;60.15;97521.28;1715032;83;21152;-77
2021/03/04 07:49:45;;;;;;;50.12;23.22;;;;;;;4.22;59.39;97514.81;1832566;77;22711;-78
2021/03/04 07:52:17;;;;;;;55.12;24.35;;;;;;;4.19;60.17;97511.51;1799713;77;21070;-77
2021/03/04 07:54:54;;;;;;;51.75;24.92;;;;;;;4.19;59.74;97508.42;1795614;78;21187;-78
2021/03/04 07:57:30;;;;;;;63.10;20.90;;;;;;;4.36;59.63;97495.05;1797637;79;22417;-76
2021/03/04 08:00:06;;;;;;;50.65;22.17;;;;;;;4.44;60.01;97494.65;1808026;78;21560;-79
2021/03/04 08:02:44;;;;;;;45.73;22.77;;;;;;;4.49;59.91;97491.37;1795943;78;21550;-77
2021/03/04 08:05:31;;;;;;;31.25;14.95;;;;;;;4.62;59.85;97497.66;1798410;79;21108;-77
2021/03/04 08:08:12;;;;;;;46.73;23.65;;;;;;;4.64;59.13;97491.91;1810923;78;21707;-81
2021/03/04 08:13:39;;;;;;;50.78;29.87;;;;;;;4.53;58.53;97489.84;1752571;79;28864;-78
2021/03/04 08:16:15;;;;;;;37.93;19.45;;;;;;;4.59;58.71;97482.61;1743269;82;21115;-77
2021/03/04 08:18:58;;;;;;;36.42;17.73;;;;;;;4.62;58.64;97480.68;1749007;82;21148;-77
2021/03/04 08:21:26;;;;;;;43.15;21.80;;;;;;;4.55;57.92;97478.00;1752183;82;21578;-78
2021/03/04 08:23:54;;;;;;;40.90;23.20;;;;;;;4.31;58.39;97476.14;1730940;82;21268;-79
2021/03/04 08:26:27;;;;;;;48.28;23.67;;;;;;;4.23;58.36;97471.28;1725272;82;21518;-79
2021/03/04 08:29:07;;;;;;;38.80;21.80;;;;;;;4.28;58.71;97468.45;1724575;83;21309;-79
2021/03/04 08:31:38;;;;;;;38.25;18.87;;;;;;;4.43;58.93;97466.41;1748588;82;21558;-77
2021/03/04 08:34:05;;;;;;;40.50;22.90;;;;;;;4.53;57.86;97463.73;1748376;82;21132;-78
2021/03/04 08:36:53;;;;;;;60.08;27.35;;;;;;;4.63;58.25;97459.34;1729812;82;21151;-78
2021/03/04 08:39:23;;;;;;;62.83;29.25;;;;;;;4.61;58.16;97460.71;1728273;82;21290;-79
2021/03/04 08:41:50;;;;;;;58.65;27.93;;;;;;;4.66;58.63;97456.56;1746617;82;21152;-76
2021/03/04 08:44:18;;;;;;;71.28;38.85;;;;;;;4.74;58.82;97451.79;1745167;81;21147;-77
2021/03/04 08:46:50;;;;;;;49.05;25.20;;;;;;;4.77;59.95;97454.26;1737089;82;21144;-78
2021/03/04 08:49:22;;;;;;;68.50;35.98;;;;;;;4.81;58.74;97448.41;1731223;82;21159;-77
2021/03/04 08:51:51;;;;;;;88.10;41.08;;;;;;;4.72;58.32;97447.58;1741383;82;21124;-78
2021/03/04 08:54:27;;;;;;;78.92;40.08;;;;;;;4.72;58.65;97449.74;1736286;82;21587;-77
2021/03/04 08:57:05;;;;;;;65.15;29.37;;;;;;;4.79;58.62;97443.72;1731590;82;21198;-78
2021/03/04 08:59:33;;;;;;;71.47;35.83;;;;;;;4.78;58.52;97419.86;1730301;82;21548;-78
2021/03/04 09:02:01;;;;;;;73.10;34.53;;;;;;;4.95;58.11;97445.95;1689710;85;21632;-78
2021/03/04 09:04:29;;;;;;;60.00;29.75;;;;;;;5.02;58.36;97446.92;1708723;83;22191;-78
2021/03/04 09:06:56;;;;;;;55.67;29.77;;;;;;;5.09;58.14;97441.75;1685017;85;21182;-78
2021/03/04 09:09:30;;;;;;;56.63;31.42;;;;;;;5.12;58.04;97429.37;1684881;85;21179;-81
2021/03/04 09:12:01;;;;;;;56.45;31.40;;;;;;;5.19;57.86;97432.98;1655613;86;21195;-80
2021/03/04 09:14:31;;;;;;;36.53;22.65;;;;;;;5.23;57.82;97425.34;1688122;85;21271;-82
2021/03/04 09:17:04;;;;;;;47.70;26.65;;;;;;;5.26;57.60;97426.02;1626503;88;21174;-78
2021/03/04 09:19:40;;;;;;;56.33;29.27;;;;;;;5.20;57.69;97417.69;1651697;87;21173;-79
2021/03/04 09:22:12;;;;;;;55.55;29.07;;;;;;;5.07;57.76;97423.55;1713815;84;21180;-77
2021/03/04 09:24:40;;;;;;;58.92;34.05;;;;;;;5.11;58.09;97416.39;1716192;84;21290;-77
2021/03/04 09:27:11;;;;;;;69.05;34.63;;;;;;;5.17;57.98;97416.05;1690992;84;21138;-80
2021/03/04 09:29:41;;;;;;;63.08;34.60;;;;;;;5.22;58.08;97412.75;1716675;84;21328;-79
2021/03/04 09:32:17;;;;;;;53.20;29.32;;;;;;;5.34;58.06;97404.70;1825409;77;22903;-80
2021/03/04 09:34:46;;;;;;;50.03;28.45;;;;;;;5.39;57.93;97405.77;1829062;78;21273;-79
2021/03/04 09:37:30;;;;;;;55.92;34.65;;;;;;;5.40;58.15;97404.84;1781972;80;21171;-77
2021/03/04 09:39:59;;;;;;;40.78;25.80;;;;;;;5.43;58.12;97404.20;1761886;81;21164;-79
2021/03/04 09:42:37;;;;;;;54.20;32.25;;;;;;;5.55;57.96;97407.91;1763109;81;21180;-78
2021/03/04 09:45:11;;;;;;;58.05;35.28;;;;;;;5.57;57.73;97398.22;1779857;81;21151;-79
2021/03/04 09:47:47;;;;;;;52.03;28.62;;;;;;;5.67;58.03;97389.86;1780373;81;21587;-80
2021/03/04 09:50:26;;;;;;;51.83;32.03;;;;;;;5.80;57.55;97390.84;1780442;81;21356;-81
2021/03/04 09:53:00;;;;;;;43.50;20.27;;;;;;;5.88;57.68;97391.28;1762742;81;21262;-79
2021/03/04 09:55:40;;;;;;;45.75;24.10;;;;;;;6.04;56.96;97378.17;1756096;81;21289;-79
2021/03/04 09:58:17;;;;;;;45.65;25.60;;;;;;;6.04;57.08;97378.17;1747626;81;21149;-79
2021/03/04 10:00:58;;;;;;;60.15;32.67;;;;;;;6.01;56.76;97380.13;1767455;80;21267;-79
2021/03/04 10:03:34;;;;;;;40.67;22.00;;;;;;;6.04;57.03;97374.25;1747242;81;21341;-81
2021/03/04 10:06:03;;;;;;;54.55;30.08;;;;;;;6.15;56.38;97368.41;1755063;81;21285;-80
2021/03/04 10:08:41;;;;;;;44.83;26.35;;;;;;;6.09;56.57;97360.90;1762923;81;21167;-81
2021/03/04 10:11:22;;;;;;;40.43;21.33;;;;;;;6.14;56.07;97357.56;1751749;81;21301;-82
2021/03/04 10:13:50;;;;;;;53.05;30.30;;;;;;;6.17;55.99;97357.36;1754420;81;21283;-81
2021/03/04 10:16:18;;;;;;;48.87;26.27;;;;;;;6.19;56.11;97356.81;1742321;81;21314;-82
2021/03/04 10:18:49;;;;;;;34.48;17.12;;;;;;;6.35;55.93;97353.32;1740556;82;21262;-80
2021/03/04 10:21:18;;;;;;;45.65;23.67;;;;;;;6.51;55.33;97355.84;1750121;81;21595;-79
2021/03/04 10:23:51;;;;;;;50.70;24.98;;;;;;;6.41;53.63;97355.56;1758098;81;21464;-80
2021/03/04 10:26:21;;;;;;;38.80;19.67;;;;;;;6.41;54.40;97354.26;1727872;82;21164;-80
2021/03/04 10:28:49;;;;;;;42.83;21.20;;;;;;;6.56;54.61;97358.57;1753140;82;21616;-79
2021/03/04 10:31:17;;;;;;;41.35;21.25;;;;;;;6.71;54.64;97341.58;1759765;81;21136;-79
2021/03/04 10:33:45;;;;;;;42.80;25.35;;;;;;;6.88;53.67;97347.93;1741417;81;21127;-79
2021/03/04 10:36:12;;;;;;;40.88;21.87;;;;;;;6.94;51.70;97339.30;1786909;80;21147;-78
2021/03/04 10:38:39;;;;;;;39.92;21.17;;;;;;;7.01;53.08;97338.84;1772339;80;21154;-80
2021/03/04 10:41:07;;;;;;;43.95;26.05;;;;;;;6.96;52.31;97334.34;1743178;82;21142;-79
2021/03/04 10:43:34;;;;;;;48.80;25.35;;;;;;;6.97;53.08;97326.02;1756204;81;21556;-78
2021/03/04 10:46:03;;;;;;;47.93;26.82;;;;;;;6.95;52.62;97320.89;1728478;83;21162;-78
2021/03/04 10:48:32;;;;;;;39.23;21.68;;;;;;;7.11;52.36;97318.61;1727829;82;21673;-78
2021/03/04 10:51:00;;;;;;;44.20;24.90;;;;;;;7.21;52.44;97313.16;1741154;81;21116;-79
2021/03/04 10:53:27;;;;;;;56.95;28.45;;;;;;;7.33;52.97;97311.05;1729135;81;21157;-80
2021/03/04 10:55:54;;;;;;;44.15;27.45;;;;;;;7.51;52.75;97312.16;1740896;81;21181;-78
2021/03/04 10:58:21;;;;;;;40.15;20.12;;;;;;;7.63;52.49;97307.41;1742932;81;21567;-79
2021/03/04 11:00:51;;;;;;;48.98;28.00;;;;;;;7.86;51.11;97299.82;1725230;83;21195;-80
2021/03/04 11:03:20;;;;;;;42.93;23.00;;;;;;;7.86;51.11;97299.82;1747957;81;21143;-79
2021/03/04 11:05:48;;;;;;;44.83;28.25;;;;;;;7.89;51.45;97293.03;1768382;81;21170;-81
2021/03/04 11:08:16;;;;;;;44.42;25.48;;;;;;;7.89;51.23;97282.54;1742842;82;21616;-82
2021/03/04 11:10:46;;;;;;;51.00;27.98;;;;;;;7.97;51.69;97282.04;1759740;81;21178;-80
2021/03/04 11:13:15;;;;;;;33.20;18.00;;;;;;;8.02;51.42;97278.65;1731146;82;21120;-82
2021/03/04 11:15:43;;;;;;;39.30;19.80;;;;;;;8.10;50.31;97270.23;1761363;80;21112;-79
2021/03/04 11:18:11;;;;;;;44.48;25.60;;;;;;;8.09;49.78;97264.16;1766547;81;21263;-82
2021/03/04 11:20:39;;;;;;;45.48;27.17;;;;;;;8.02;50.95;97263.35;1767882;81;21156;-81
2021/03/04 11:23:06;;;;;;;35.28;20.08;;;;;;;8.06;50.91;97261.73;1768149;81;21286;-81
2021/03/04 11:25:34;;;;;;;46.50;28.92;;;;;;;8.13;50.84;97256.42;1767955;81;21231;-81
2021/03/04 11:28:01;;;;;;;50.58;29.18;;;;;;;8.19;51.21;97246.47;1769784;80;21153;-81
2021/03/04 11:30:31;;;;;;;51.77;27.07;;;;;;;8.32;50.65;97244.66;1769227;81;21189;-81
2021/03/04 11:32:58;;;;;;;44.65;29.23;;;;;;;8.45;50.69;97244.66;1789984;80;21316;-81
2021/03/04 11:35:27;;;;;;;48.33;25.30;;;;;;;8.57;49.84;97233.82;1790523;80;21115;-83
2021/03/04 11:37:55;;;;;;;39.95;24.02;;;;;;;8.71;50.09;97231.05;1790421;79;21135;-81
2021/03/04 11:40:23;;;;;;;45.12;29.00;;;;;;;8.89;49.94;97225.43;1790007;80;21265;-81
2021/03/04 11:42:51;;;;;;;58.95;30.02;;;;;;;8.94;49.49;97218.07;1790006;79;21153;-81
2021/03/04 11:45:20;;;;;;;40.67;26.02;;;;;;;9.08;49.15;97217.08;1787995;80;21276;-80
2021/03/04 11:47:47;;;;;;;49.75;30.15;;;;;;;9.14;49.41;97207.42;1787634;80;21693;-80